Terminal Aerodrome Forecast
Issued by NWS

Home | Current Version | Previous Version | Text Only | Print | Product List | Glossary Off
Versions: 1 2 3 4 5 6 7 8 9 10 11 12 13 14

000
FTUS43 KFGF 221700
TAFBJI
TAF
KBJI 221720Z 2218/2318 VRB06KT P6SM SCT050
     FM230600 13009KT P6SM BKN050
     FM231200 14012KT P6SM BKN050=

USA.gov is the U.S. government's official web portal to all federal, state and local government web resources and services.